sensor_id;sensor_type;location;lat;lon;timestamp;P1;durP1;ratioP1;P2;durP2;ratioP2
22270;SDS011;11304;53.520;10.104;2023-01-10T00:02:06;26.50;;;10.15;;
22270;SDS011;11304;53.520;10.104;2023-01-10T00:04:32;24.75;;;9.95;;
22270;SDS011;11304;53.520;10.104;2023-01-10T00:06:58;26.08;;;10.00;;
22270;SDS011;11304;53.520;10.104;2023-01-10T00:09:26;27.33;;;10.15;;
22270;SDS011;11304;53.520;10.104;2023-01-10T00:11:52;17.55;;;8.82;;
22270;SDS011;11304;53.520;10.104;2023-01-10T00:14:36;23.45;;;8.38;;
22270;SDS011;11304;53.520;10.104;2023-01-10T00:17:03;23.73;;;8.57;;
22270;SDS011;11304;53.520;10.104;2023-01-10T00:19:29;24.20;;;8.07;;
22270;SDS011;11304;53.520;10.104;2023-01-10T00:21:55;18.20;;;7.13;;
22270;SDS011;11304;53.520;10.104;2023-01-10T00:24:22;27.02;;;8.73;;
22270;SDS011;11304;53.520;10.104;2023-01-10T00:26:49;19.45;;;7.93;;
22270;SDS011;11304;53.520;10.104;2023-01-10T00:31:44;26.20;;;7.22;;
22270;SDS011;11304;53.520;10.104;2023-01-10T00:34:10;25.42;;;7.28;;
22270;SDS011;11304;53.520;10.104;2023-01-10T00:36:36;23.10;;;6.97;;
22270;SDS011;11304;53.520;10.104;2023-01-10T00:39:02;24.98;;;7.53;;
22270;SDS011;11304;53.520;10.104;2023-01-10T00:41:28;25.73;;;6.90;;
22270;SDS011;11304;53.520;10.104;2023-01-10T00:44:13;24.45;;;6.55;;
22270;SDS011;11304;53.520;10.104;2023-01-10T00:46:39;22.83;;;7.00;;
22270;SDS011;11304;53.520;10.104;2023-01-10T00:49:05;16.40;;;6.63;;
22270;SDS011;11304;53.520;10.104;2023-01-10T00:51:36;23.75;;;7.03;;
22270;SDS011;11304;53.520;10.104;2023-01-10T00:54:02;16.27;;;6.07;;
22270;SDS011;11304;53.520;10.104;2023-01-10T00:56:28;18.30;;;6.93;;
22270;SDS011;11304;53.520;10.104;2023-01-10T00:58:55;19.48;;;6.38;;
22270;SDS011;11304;53.520;10.104;2023-01-10T01:01:21;20.02;;;6.57;;
22270;SDS011;11304;53.520;10.104;2023-01-10T01:03:47;21.63;;;6.45;;
22270;SDS011;11304;53.520;10.104;2023-01-10T01:06:13;19.48;;;6.40;;
22270;SDS011;11304;53.520;10.104;2023-01-10T01:08:39;21.08;;;6.88;;
22270;SDS011;11304;53.520;10.104;2023-01-10T01:11:06;23.20;;;6.60;;
22270;SDS011;11304;53.520;10.104;2023-01-10T01:13:32;16.67;;;6.25;;
22270;SDS011;11304;53.520;10.104;2023-01-10T01:15:58;18.92;;;6.28;;
22270;SDS011;11304;53.520;10.104;2023-01-10T01:18:24;20.38;;;6.65;;
22270;SDS011;11304;53.520;10.104;2023-01-10T01:20:55;21.00;;;7.20;;
22270;SDS011;11304;53.520;10.104;2023-01-10T01:23:24;19.40;;;6.43;;
22270;SDS011;11304;53.520;10.104;2023-01-10T01:25:50;18.23;;;6.40;;
22270;SDS011;11304;53.520;10.104;2023-01-10T01:28:17;22.98;;;7.05;;
22270;SDS011;11304;53.520;10.104;2023-01-10T01:30:43;26.05;;;7.10;;
22270;SDS011;11304;53.520;10.104;2023-01-10T01:33:09;20.35;;;7.70;;
22270;SDS011;11304;53.520;10.104;2023-01-10T01:35:36;24.45;;;7.22;;
22270;SDS011;11304;53.520;10.104;2023-01-10T01:38:02;17.10;;;6.78;;
22270;SDS011;11304;53.520;10.104;2023-01-10T01:40:28;15.10;;;6.53;;
22270;SDS011;11304;53.520;10.104;2023-01-10T01:42:54;22.20;;;5.90;;
22270;SDS011;11304;53.520;10.104;2023-01-10T01:45:29;19.83;;;7.20;;
22270;SDS011;11304;53.520;10.104;2023-01-10T01:47:58;20.48;;;6.95;;
22270;SDS011;11304;53.520;10.104;2023-01-10T01:50:31;16.05;;;6.90;;
22270;SDS011;11304;53.520;10.104;2023-01-10T01:55:25;21.88;;;6.47;;
22270;SDS011;11304;53.520;10.104;2023-01-10T01:57:52;17.58;;;7.13;;
22270;SDS011;11304;53.520;10.104;2023-01-10T02:00:20;13.10;;;5.18;;
22270;SDS011;11304;53.520;10.104;2023-01-10T02:02:48;15.27;;;6.68;;
22270;SDS011;11304;53.520;10.104;2023-01-10T02:05:15;18.45;;;6.65;;
22270;SDS011;11304;53.520;10.104;2023-01-10T02:07:43;20.27;;;7.22;;
22270;SDS011;11304;53.520;10.104;2023-01-10T02:10:14;18.38;;;6.88;;
22270;SDS011;11304;53.520;10.104;2023-01-10T02:12:42;20.88;;;7.70;;
22270;SDS011;11304;53.520;10.104;2023-01-10T02:15:10;22.98;;;7.22;;
22270;SDS011;11304;53.520;10.104;2023-01-10T02:17:36;18.38;;;6.85;;
22270;SDS011;11304;53.520;10.104;2023-01-10T02:20:04;24.10;;;6.82;;
22270;SDS011;11304;53.520;10.104;2023-01-10T02:25:22;16.35;;;6.35;;
22270;SDS011;11304;53.520;10.104;2023-01-10T02:30:40;17.67;;;7.25;;
22270;SDS011;11304;53.520;10.104;2023-01-10T02:38:31;17.38;;;7.10;;
22270;SDS011;11304;53.520;10.104;2023-01-10T02:41:04;14.93;;;6.97;;
22270;SDS011;11304;53.520;10.104;2023-01-10T02:43:38;22.10;;;6.70;;
22270;SDS011;11304;53.520;10.104;2023-01-10T02:46:10;16.50;;;7.43;;
22270;SDS011;11304;53.520;10.104;2023-01-10T02:48:38;21.80;;;7.05;;
22270;SDS011;11304;53.520;10.104;2023-01-10T02:51:16;16.23;;;7.45;;
22270;SDS011;11304;53.520;10.104;2023-01-10T02:53:44;19.27;;;6.97;;
22270;SDS011;11304;53.520;10.104;2023-01-10T02:56:24;19.95;;;6.93;;
22270;SDS011;11304;53.520;10.104;2023-01-10T03:06:39;20.08;;;6.95;;
22270;SDS011;11304;53.520;10.104;2023-01-10T03:09:16;20.42;;;7.28;;
22270;SDS011;11304;53.520;10.104;2023-01-10T03:11:45;17.40;;;7.28;;
22270;SDS011;11304;53.520;10.104;2023-01-10T03:14:16;17.55;;;6.85;;
22270;SDS011;11304;53.520;10.104;2023-01-10T03:16:44;20.08;;;7.20;;
22270;SDS011;11304;53.520;10.104;2023-01-10T03:21:38;15.68;;;6.38;;
22270;SDS011;11304;53.520;10.104;2023-01-10T03:24:07;28.27;;;7.57;;
22270;SDS011;11304;53.520;10.104;2023-01-10T03:26:46;20.13;;;6.82;;
22270;SDS011;11304;53.520;10.104;2023-01-10T03:29:15;21.08;;;6.93;;
22270;SDS011;11304;53.520;10.104;2023-01-10T03:31:45;28.65;;;7.20;;
22270;SDS011;11304;53.520;10.104;2023-01-10T03:34:12;16.35;;;6.88;;
22270;SDS011;11304;53.520;10.104;2023-01-10T03:39:18;15.40;;;5.95;;
22270;SDS011;11304;53.520;10.104;2023-01-10T03:41:49;16.42;;;6.30;;
22270;SDS011;11304;53.520;10.104;2023-01-10T03:44:18;18.50;;;6.35;;
22270;SDS011;11304;53.520;10.104;2023-01-10T03:47:05;12.20;;;5.07;;
22270;SDS011;11304;53.520;10.104;2023-01-10T03:49:32;20.48;;;6.13;;
22270;SDS011;11304;53.520;10.104;2023-01-10T03:51:59;11.70;;;5.20;;
22270;SDS011;11304;53.520;10.104;2023-01-10T03:54:27;17.63;;;5.68;;
22270;SDS011;11304;53.520;10.104;2023-01-10T03:56:53;13.15;;;4.85;;
22270;SDS011;11304;53.520;10.104;2023-01-10T03:59:23;15.10;;;4.90;;
22270;SDS011;11304;53.520;10.104;2023-01-10T04:01:49;16.25;;;5.28;;
22270;SDS011;11304;53.520;10.104;2023-01-10T04:04:16;13.10;;;4.82;;
22270;SDS011;11304;53.520;10.104;2023-01-10T04:06:42;18.65;;;5.50;;
22270;SDS011;11304;53.520;10.104;2023-01-10T04:09:08;14.85;;;4.55;;
22270;SDS011;11304;53.520;10.104;2023-01-10T04:11:34;17.70;;;4.80;;
22270;SDS011;11304;53.520;10.104;2023-01-10T04:14:00;17.38;;;4.65;;
22270;SDS011;11304;53.520;10.104;2023-01-10T04:16:26;16.33;;;4.82;;
22270;SDS011;11304;53.520;10.104;2023-01-10T04:18:52;14.85;;;5.07;;
22270;SDS011;11304;53.520;10.104;2023-01-10T04:21:18;17.30;;;4.53;;
22270;SDS011;11304;53.520;10.104;2023-01-10T04:23:45;12.57;;;4.13;;
22270;SDS011;11304;53.520;10.104;2023-01-10T04:26:11;18.27;;;4.72;;
22270;SDS011;11304;53.520;10.104;2023-01-10T04:28:37;16.13;;;4.78;;
22270;SDS011;11304;53.520;10.104;2023-01-10T04:31:03;12.13;;;3.97;;
22270;SDS011;11304;53.520;10.104;2023-01-10T04:33:29;17.17;;;4.53;;
22270;SDS011;11304;53.520;10.104;2023-01-10T04:35:56;17.42;;;4.30;;
22270;SDS011;11304;53.520;10.104;2023-01-10T04:38:22;19.15;;;4.97;;
22270;SDS011;11304;53.520;10.104;2023-01-10T04:40:52;15.52;;;4.05;;
22270;SDS011;11304;53.520;10.104;2023-01-10T04:43:18;18.10;;;4.60;;
22270;SDS011;11304;53.520;10.104;2023-01-10T04:45:44;17.02;;;4.78;;
22270;SDS011;11304;53.520;10.104;2023-01-10T04:48:10;15.90;;;4.25;;
22270;SDS011;11304;53.520;10.104;2023-01-10T04:50:36;14.40;;;4.82;;
22270;SDS011;11304;53.520;10.104;2023-01-10T04:53:02;14.80;;;4.25;;
22270;SDS011;11304;53.520;10.104;2023-01-10T04:55:28;14.68;;;4.07;;
22270;SDS011;11304;53.520;10.104;2023-01-10T04:57:54;16.80;;;4.57;;
22270;SDS011;11304;53.520;10.104;2023-01-10T05:00:20;18.02;;;3.83;;
22270;SDS011;11304;53.520;10.104;2023-01-10T05:02:46;15.30;;;4.45;;
22270;SDS011;11304;53.520;10.104;2023-01-10T05:05:12;17.48;;;4.60;;
22270;SDS011;11304;53.520;10.104;2023-01-10T05:07:39;17.45;;;4.50;;
22270;SDS011;11304;53.520;10.104;2023-01-10T05:10:06;23.15;;;4.60;;
22270;SDS011;11304;53.520;10.104;2023-01-10T05:12:33;23.75;;;3.95;;
22270;SDS011;11304;53.520;10.104;2023-01-10T05:14:59;14.80;;;4.07;;
22270;SDS011;11304;53.520;10.104;2023-01-10T05:17:25;14.88;;;3.75;;
22270;SDS011;11304;53.520;10.104;2023-01-10T05:19:51;17.88;;;3.92;;
22270;SDS011;11304;53.520;10.104;2023-01-10T05:22:17;15.65;;;3.83;;
22270;SDS011;11304;53.520;10.104;2023-01-10T05:24:43;16.15;;;4.03;;
22270;SDS011;11304;53.520;10.104;2023-01-10T05:27:09;15.73;;;3.75;;
22270;SDS011;11304;53.520;10.104;2023-01-10T05:29:35;15.65;;;3.83;;
22270;SDS011;11304;53.520;10.104;2023-01-10T05:32:01;16.48;;;3.70;;
22270;SDS011;11304;53.520;10.104;2023-01-10T05:34:27;24.52;;;3.80;;
22270;SDS011;11304;53.520;10.104;2023-01-10T05:36:54;14.02;;;3.80;;
22270;SDS011;11304;53.520;10.104;2023-01-10T05:39:20;16.40;;;3.75;;
22270;SDS011;11304;53.520;10.104;2023-01-10T05:41:46;16.70;;;3.80;;
22270;SDS011;11304;53.520;10.104;2023-01-10T05:44:12;20.15;;;4.32;;
22270;SDS011;11304;53.520;10.104;2023-01-10T05:46:38;14.75;;;3.63;;
22270;SDS011;11304;53.520;10.104;2023-01-10T05:49:04;17.48;;;3.97;;
22270;SDS011;11304;53.520;10.104;2023-01-10T05:51:30;10.57;;;3.05;;
22270;SDS011;11304;53.520;10.104;2023-01-10T05:53:56;14.38;;;3.42;;
22270;SDS011;11304;53.520;10.104;2023-01-10T05:56:23;16.65;;;3.35;;
22270;SDS011;11304;53.520;10.104;2023-01-10T05:58:49;22.20;;;3.90;;
22270;SDS011;11304;53.520;10.104;2023-01-10T06:01:15;18.15;;;3.70;;
22270;SDS011;11304;53.520;10.104;2023-01-10T06:03:41;20.88;;;4.85;;
22270;SDS011;11304;53.520;10.104;2023-01-10T06:06:07;18.90;;;3.83;;
22270;SDS011;11304;53.520;10.104;2023-01-10T06:08:33;18.35;;;3.33;;
22270;SDS011;11304;53.520;10.104;2023-01-10T06:11:01;17.30;;;3.83;;
22270;SDS011;11304;53.520;10.104;2023-01-10T06:13:27;19.35;;;3.80;;
22270;SDS011;11304;53.520;10.104;2023-01-10T06:15:53;20.80;;;3.72;;
22270;SDS011;11304;53.520;10.104;2023-01-10T06:18:19;17.77;;;4.03;;
22270;SDS011;11304;53.520;10.104;2023-01-10T06:20:45;14.82;;;3.95;;
22270;SDS011;11304;53.520;10.104;2023-01-10T06:23:11;19.45;;;4.57;;
22270;SDS011;11304;53.520;10.104;2023-01-10T06:25:38;16.30;;;4.22;;
22270;SDS011;11304;53.520;10.104;2023-01-10T06:28:08;16.42;;;4.20;;
22270;SDS011;11304;53.520;10.104;2023-01-10T06:30:34;20.25;;;4.85;;
22270;SDS011;11304;53.520;10.104;2023-01-10T06:33:01;19.50;;;4.30;;
22270;SDS011;11304;53.520;10.104;2023-01-10T06:35:27;18.25;;;3.95;;
22270;SDS011;11304;53.520;10.104;2023-01-10T06:37:53;13.82;;;4.28;;
22270;SDS011;11304;53.520;10.104;2023-01-10T06:40:19;20.20;;;5.50;;
22270;SDS011;11304;53.520;10.104;2023-01-10T06:42:45;23.88;;;5.10;;
22270;SDS011;11304;53.520;10.104;2023-01-10T06:45:11;19.05;;;4.57;;
22270;SDS011;11304;53.520;10.104;2023-01-10T06:47:37;15.00;;;4.28;;
22270;SDS011;11304;53.520;10.104;2023-01-10T06:50:04;16.90;;;4.25;;
22270;SDS011;11304;53.520;10.104;2023-01-10T06:52:30;20.25;;;4.70;;
22270;SDS011;11304;53.520;10.104;2023-01-10T06:54:56;17.00;;;4.13;;
22270;SDS011;11304;53.520;10.104;2023-01-10T06:57:22;21.30;;;5.05;;
22270;SDS011;11304;53.520;10.104;2023-01-10T06:59:48;27.15;;;4.63;;
22270;SDS011;11304;53.520;10.104;2023-01-10T07:02:14;21.42;;;4.22;;
22270;SDS011;11304;53.520;10.104;2023-01-10T07:04:40;17.55;;;4.57;;
22270;SDS011;11304;53.520;10.104;2023-01-10T07:07:06;15.43;;;4.47;;
22270;SDS011;11304;53.520;10.104;2023-01-10T07:09:32;20.73;;;5.47;;
22270;SDS011;11304;53.520;10.104;2023-01-10T07:11:58;16.25;;;4.70;;
22270;SDS011;11304;53.520;10.104;2023-01-10T07:14:24;23.80;;;5.40;;
22270;SDS011;11304;53.520;10.104;2023-01-10T07:16:50;18.52;;;4.95;;
22270;SDS011;11304;53.520;10.104;2023-01-10T07:19:16;15.95;;;3.90;;
22270;SDS011;11304;53.520;10.104;2023-01-10T07:21:44;15.95;;;4.68;;
22270;SDS011;11304;53.520;10.104;2023-01-10T07:24:10;21.10;;;5.15;;
22270;SDS011;11304;53.520;10.104;2023-01-10T07:26:36;19.33;;;4.80;;
22270;SDS011;11304;53.520;10.104;2023-01-10T07:29:02;22.40;;;5.88;;
22270;SDS011;11304;53.520;10.104;2023-01-10T07:31:28;27.25;;;6.53;;
22270;SDS011;11304;53.520;10.104;2023-01-10T07:33:54;23.88;;;5.38;;
22270;SDS011;11304;53.520;10.104;2023-01-10T07:36:20;20.30;;;5.28;;
22270;SDS011;11304;53.520;10.104;2023-01-10T07:38:46;16.42;;;5.18;;
22270;SDS011;11304;53.520;10.104;2023-01-10T07:41:12;26.98;;;6.05;;
22270;SDS011;11304;53.520;10.104;2023-01-10T07:43:38;19.23;;;5.13;;
22270;SDS011;11304;53.520;10.104;2023-01-10T07:46:05;22.88;;;5.38;;
22270;SDS011;11304;53.520;10.104;2023-01-10T07:48:36;34.85;;;9.30;;
22270;SDS011;11304;53.520;10.104;2023-01-10T07:51:02;21.35;;;7.07;;
22270;SDS011;11304;53.520;10.104;2023-01-10T07:53:28;24.90;;;6.80;;
22270;SDS011;11304;53.520;10.104;2023-01-10T07:55:58;21.50;;;5.95;;
22270;SDS011;11304;53.520;10.104;2023-01-10T07:58:24;30.83;;;6.80;;
22270;SDS011;11304;53.520;10.104;2023-01-10T08:00:50;24.50;;;6.30;;
22270;SDS011;11304;53.520;10.104;2023-01-10T08:03:17;17.63;;;4.95;;
22270;SDS011;11304;53.520;10.104;2023-01-10T08:05:43;18.67;;;4.88;;
22270;SDS011;11304;53.520;10.104;2023-01-10T08:08:10;21.35;;;5.70;;
22270;SDS011;11304;53.520;10.104;2023-01-10T08:10:37;18.10;;;5.35;;
22270;SDS011;11304;53.520;10.104;2023-01-10T08:13:04;17.08;;;5.45;;
22270;SDS011;11304;53.520;10.104;2023-01-10T08:15:30;22.00;;;6.20;;
22270;SDS011;11304;53.520;10.104;2023-01-10T08:17:59;14.55;;;6.18;;
22270;SDS011;11304;53.520;10.104;2023-01-10T08:20:26;23.00;;;6.30;;
22270;SDS011;11304;53.520;10.104;2023-01-10T08:22:52;19.20;;;6.47;;
22270;SDS011;11304;53.520;10.104;2023-01-10T08:25:18;19.48;;;6.18;;
22270;SDS011;11304;53.520;10.104;2023-01-10T08:27:44;21.50;;;6.45;;
22270;SDS011;11304;53.520;10.104;2023-01-10T08:30:10;24.02;;;6.05;;
22270;SDS011;11304;53.520;10.104;2023-01-10T08:32:36;22.23;;;6.20;;
22270;SDS011;11304;53.520;10.104;2023-01-10T08:35:03;26.23;;;6.07;;
22270;SDS011;11304;53.520;10.104;2023-01-10T08:37:30;24.17;;;6.47;;
22270;SDS011;11304;53.520;10.104;2023-01-10T08:39:56;19.92;;;5.60;;
22270;SDS011;11304;53.520;10.104;2023-01-10T08:42:22;19.58;;;5.57;;
22270;SDS011;11304;53.520;10.104;2023-01-10T08:44:48;22.50;;;5.82;;
22270;SDS011;11304;53.520;10.104;2023-01-10T08:47:14;19.70;;;5.80;;
22270;SDS011;11304;53.520;10.104;2023-01-10T08:49:40;23.42;;;6.43;;
22270;SDS011;11304;53.520;10.104;2023-01-10T08:52:06;22.50;;;6.00;;
22270;SDS011;11304;53.520;10.104;2023-01-10T08:54:32;19.55;;;6.70;;
22270;SDS011;11304;53.520;10.104;2023-01-10T08:56:58;23.17;;;7.10;;
22270;SDS011;11304;53.520;10.104;2023-01-10T08:59:25;20.80;;;7.07;;
22270;SDS011;11304;53.520;10.104;2023-01-10T09:01:51;17.17;;;6.75;;
22270;SDS011;11304;53.520;10.104;2023-01-10T09:04:17;21.70;;;7.25;;
22270;SDS011;11304;53.520;10.104;2023-01-10T09:06:43;21.67;;;7.18;;
22270;SDS011;11304;53.520;10.104;2023-01-10T09:09:09;23.33;;;7.05;;
22270;SDS011;11304;53.520;10.104;2023-01-10T09:11:35;17.20;;;6.90;;
22270;SDS011;11304;53.520;10.104;2023-01-10T09:14:01;22.42;;;6.78;;
22270;SDS011;11304;53.520;10.104;2023-01-10T09:16:27;17.52;;;6.28;;
22270;SDS011;11304;53.520;10.104;2023-01-10T09:18:53;18.67;;;7.07;;
22270;SDS011;11304;53.520;10.104;2023-01-10T09:21:20;23.38;;;7.85;;
22270;SDS011;11304;53.520;10.104;2023-01-10T09:23:46;19.75;;;7.18;;
22270;SDS011;11304;53.520;10.104;2023-01-10T09:26:12;23.35;;;6.97;;
22270;SDS011;11304;53.520;10.104;2023-01-10T09:28:38;18.92;;;6.70;;
22270;SDS011;11304;53.520;10.104;2023-01-10T09:31:05;20.65;;;6.45;;
22270;SDS011;11304;53.520;10.104;2023-01-10T09:33:33;19.98;;;7.03;;
22270;SDS011;11304;53.520;10.104;2023-01-10T09:35:59;19.33;;;7.22;;
22270;SDS011;11304;53.520;10.104;2023-01-10T09:38:25;22.63;;;6.43;;
22270;SDS011;11304;53.520;10.104;2023-01-10T09:41:10;21.60;;;6.72;;
22270;SDS011;11304;53.520;10.104;2023-01-10T09:46:11;18.63;;;6.45;;
22270;SDS011;11304;53.520;10.104;2023-01-10T09:51:13;21.33;;;6.13;;
22270;SDS011;11304;53.520;10.104;2023-01-10T09:53:41;18.90;;;6.35;;
22270;SDS011;11304;53.520;10.104;2023-01-10T09:56:09;19.35;;;6.03;;
22270;SDS011;11304;53.520;10.104;2023-01-10T09:58:38;20.05;;;5.88;;
22270;SDS011;11304;53.520;10.104;2023-01-10T10:06:29;24.13;;;7.28;;
22270;SDS011;11304;53.520;10.104;2023-01-10T10:08:55;19.98;;;6.60;;
22270;SDS011;11304;53.520;10.104;2023-01-10T10:24:03;18.05;;;6.93;;
22270;SDS011;11304;53.520;10.104;2023-01-10T10:26:35;19.10;;;6.18;;
22270;SDS011;11304;53.520;10.104;2023-01-10T10:31:48;15.77;;;5.78;;
22270;SDS011;11304;53.520;10.104;2023-01-10T10:36:44;21.70;;;6.32;;
22270;SDS011;11304;53.520;10.104;2023-01-10T10:39:13;26.80;;;6.32;;
22270;SDS011;11304;53.520;10.104;2023-01-10T10:46:45;22.20;;;6.15;;
22270;SDS011;11304;53.520;10.104;2023-01-10T10:49:22;25.88;;;6.13;;
22270;SDS011;11304;53.520;10.104;2023-01-10T10:51:54;18.35;;;6.10;;
22270;SDS011;11304;53.520;10.104;2023-01-10T10:54:20;20.35;;;6.07;;
22270;SDS011;11304;53.520;10.104;2023-01-10T10:56:47;17.92;;;6.20;;
22270;SDS011;11304;53.520;10.104;2023-01-10T10:59:16;24.17;;;6.63;;
22270;SDS011;11304;53.520;10.104;2023-01-10T11:04:11;20.00;;;6.95;;
22270;SDS011;11304;53.520;10.104;2023-01-10T11:06:38;20.15;;;6.53;;
22270;SDS011;11304;53.520;10.104;2023-01-10T11:09:13;26.08;;;7.82;;
22270;SDS011;11304;53.520;10.104;2023-01-10T11:11:44;17.92;;;6.97;;
22270;SDS011;11304;53.520;10.104;2023-01-10T11:14:11;22.13;;;6.85;;
22270;SDS011;11304;53.520;10.104;2023-01-10T11:16:38;21.35;;;7.10;;
22270;SDS011;11304;53.520;10.104;2023-01-10T11:19:21;26.73;;;7.45;;
22270;SDS011;11304;53.520;10.104;2023-01-10T11:22:00;20.83;;;6.68;;
22270;SDS011;11304;53.520;10.104;2023-01-10T11:26:56;23.73;;;8.02;;
22270;SDS011;11304;53.520;10.104;2023-01-10T11:29:24;19.90;;;6.80;;
22270;SDS011;11304;53.520;10.104;2023-01-10T11:31:50;17.13;;;7.13;;
22270;SDS011;11304;53.520;10.104;2023-01-10T11:37:01;17.20;;;6.82;;
22270;SDS011;11304;53.520;10.104;2023-01-10T11:39:27;19.00;;;6.30;;
22270;SDS011;11304;53.520;10.104;2023-01-10T11:41:54;19.75;;;6.55;;
22270;SDS011;11304;53.520;10.104;2023-01-10T11:44:23;23.42;;;6.72;;
22270;SDS011;11304;53.520;10.104;2023-01-10T11:46:51;24.48;;;7.72;;
22270;SDS011;11304;53.520;10.104;2023-01-10T11:51:45;20.25;;;6.30;;
22270;SDS011;11304;53.520;10.104;2023-01-10T11:54:14;25.05;;;6.75;;
22270;SDS011;11304;53.520;10.104;2023-01-10T11:56:42;25.90;;;6.63;;
22270;SDS011;11304;53.520;10.104;2023-01-10T11:59:13;20.05;;;6.57;;
22270;SDS011;11304;53.520;10.104;2023-01-10T12:01:47;22.85;;;6.90;;
22270;SDS011;11304;53.520;10.104;2023-01-10T12:04:18;25.48;;;6.88;;
22270;SDS011;11304;53.520;10.104;2023-01-10T12:06:48;24.33;;;7.45;;
22270;SDS011;11304;53.520;10.104;2023-01-10T12:12:44;22.08;;;7.28;;
22270;SDS011;11304;53.520;10.104;2023-01-10T12:14:50;23.88;;;6.72;;
22270;SDS011;11304;53.520;10.104;2023-01-10T12:17:21;21.83;;;7.03;;
22270;SDS011;11304;53.520;10.104;2023-01-10T12:19:48;19.58;;;6.28;;
22270;SDS011;11304;53.520;10.104;2023-01-10T12:22:17;24.73;;;7.03;;
22270;SDS011;11304;53.520;10.104;2023-01-10T12:24:44;25.65;;;7.80;;
22270;SDS011;11304;53.520;10.104;2023-01-10T12:27:13;17.60;;;7.00;;
22270;SDS011;11304;53.520;10.104;2023-01-10T12:29:42;26.98;;;6.18;;
22270;SDS011;11304;53.520;10.104;2023-01-10T12:32:15;21.25;;;7.97;;
22270;SDS011;11304;53.520;10.104;2023-01-10T12:34:43;25.23;;;8.98;;
22270;SDS011;11304;53.520;10.104;2023-01-10T12:39:54;25.88;;;8.60;;
22270;SDS011;11304;53.520;10.104;2023-01-10T12:45:28;23.90;;;8.48;;
22270;SDS011;11304;53.520;10.104;2023-01-10T12:48:03;22.40;;;8.88;;
22270;SDS011;11304;53.520;10.104;2023-01-10T12:55:38;22.80;;;8.65;;
22270;SDS011;11304;53.520;10.104;2023-01-10T12:58:05;22.60;;;8.65;;
22270;SDS011;11304;53.520;10.104;2023-01-10T13:00:33;27.00;;;9.20;;
22270;SDS011;11304;53.520;10.104;2023-01-10T13:03:00;27.20;;;9.52;;
22270;SDS011;11304;53.520;10.104;2023-01-10T13:05:28;22.45;;;8.35;;
22270;SDS011;11304;53.520;10.104;2023-01-10T13:08:01;21.70;;;8.43;;
22270;SDS011;11304;53.520;10.104;2023-01-10T13:10:28;22.17;;;7.32;;
22270;SDS011;11304;53.520;10.104;2023-01-10T13:13:04;22.55;;;8.05;;
22270;SDS011;11304;53.520;10.104;2023-01-10T13:15:32;21.65;;;6.68;;
22270;SDS011;11304;53.520;10.104;2023-01-10T13:20:25;18.98;;;7.10;;
22270;SDS011;11304;53.520;10.104;2023-01-10T13:22:53;16.25;;;7.45;;
22270;SDS011;11304;53.520;10.104;2023-01-10T13:25:24;21.25;;;6.97;;
22270;SDS011;11304;53.520;10.104;2023-01-10T13:28:34;19.23;;;6.85;;
22270;SDS011;11304;53.520;10.104;2023-01-10T13:30:40;24.45;;;7.85;;
22270;SDS011;11304;53.520;10.104;2023-01-10T13:35:37;19.20;;;7.72;;
22270;SDS011;11304;53.520;10.104;2023-01-10T13:38:03;20.35;;;7.38;;
22270;SDS011;11304;53.520;10.104;2023-01-10T13:40:29;17.85;;;7.07;;
22270;SDS011;11304;53.520;10.104;2023-01-10T13:45:44;21.98;;;7.22;;
22270;SDS011;11304;53.520;10.104;2023-01-10T13:48:23;21.83;;;7.53;;
22270;SDS011;11304;53.520;10.104;2023-01-10T13:50:52;21.17;;;7.60;;
22270;SDS011;11304;53.520;10.104;2023-01-10T13:55:57;18.42;;;6.28;;
22270;SDS011;11304;53.520;10.104;2023-01-10T14:01:41;22.45;;;7.50;;
22270;SDS011;11304;53.520;10.104;2023-01-10T14:04:34;28.65;;;7.38;;
22270;SDS011;11304;53.520;10.104;2023-01-10T14:07:22;26.23;;;7.55;;
22270;SDS011;11304;53.520;10.104;2023-01-10T14:09:47;21.38;;;7.10;;
22270;SDS011;11304;53.520;10.104;2023-01-10T14:14:49;24.65;;;6.60;;
22270;SDS011;11304;53.520;10.104;2023-01-10T14:17:26;19.95;;;7.10;;
22270;SDS011;11304;53.520;10.104;2023-01-10T14:20:36;24.75;;;6.20;;
22270;SDS011;11304;53.520;10.104;2023-01-10T14:23:05;18.75;;;6.18;;
22270;SDS011;11304;53.520;10.104;2023-01-10T14:25:31;15.52;;;6.40;;
22270;SDS011;11304;53.520;10.104;2023-01-10T14:27:58;23.10;;;6.68;;
22270;SDS011;11304;53.520;10.104;2023-01-10T14:30:29;19.80;;;7.07;;
22270;SDS011;11304;53.520;10.104;2023-01-10T14:32:58;22.15;;;6.35;;
22270;SDS011;11304;53.520;10.104;2023-01-10T14:35:36;23.63;;;6.50;;
22270;SDS011;11304;53.520;10.104;2023-01-10T14:38:03;19.90;;;5.87;;
22270;SDS011;11304;53.520;10.104;2023-01-10T14:42:57;20.27;;;5.50;;
22270;SDS011;11304;53.520;10.104;2023-01-10T14:45:39;25.02;;;6.18;;
22270;SDS011;11304;53.520;10.104;2023-01-10T14:48:24;21.23;;;6.03;;
22270;SDS011;11304;53.520;10.104;2023-01-10T14:50:52;13.20;;;5.40;;
22270;SDS011;11304;53.520;10.104;2023-01-10T14:53:26;21.65;;;5.70;;
22270;SDS011;11304;53.520;10.104;2023-01-10T14:55:52;20.45;;;5.60;;
22270;SDS011;11304;53.520;10.104;2023-01-10T14:58:18;18.58;;;5.13;;
22270;SDS011;11304;53.520;10.104;2023-01-10T15:00:46;19.52;;;5.53;;
22270;SDS011;11304;53.520;10.104;2023-01-10T15:03:17;20.17;;;5.50;;
22270;SDS011;11304;53.520;10.104;2023-01-10T15:05:45;19.33;;;5.10;;
22270;SDS011;11304;53.520;10.104;2023-01-10T15:08:21;14.82;;;4.65;;
22270;SDS011;11304;53.520;10.104;2023-01-10T15:10:48;16.45;;;5.13;;
22270;SDS011;11304;53.520;10.104;2023-01-10T15:13:16;22.33;;;5.07;;
22270;SDS011;11304;53.520;10.104;2023-01-10T15:15:44;21.95;;;5.38;;
22270;SDS011;11304;53.520;10.104;2023-01-10T15:20:57;17.60;;;5.93;;
22270;SDS011;11304;53.520;10.104;2023-01-10T15:23:24;23.92;;;5.72;;
22270;SDS011;11304;53.520;10.104;2023-01-10T15:25:55;18.50;;;6.50;;
22270;SDS011;11304;53.520;10.104;2023-01-10T15:28:22;20.98;;;6.43;;
22270;SDS011;11304;53.520;10.104;2023-01-10T15:30:48;22.13;;;5.68;;
22270;SDS011;11304;53.520;10.104;2023-01-10T15:33:16;27.20;;;6.50;;
22270;SDS011;11304;53.520;10.104;2023-01-10T15:35:44;27.38;;;6.13;;
22270;SDS011;11304;53.520;10.104;2023-01-10T15:38:18;24.67;;;6.43;;
22270;SDS011;11304;53.520;10.104;2023-01-10T15:40:45;17.40;;;6.03;;
22270;SDS011;11304;53.520;10.104;2023-01-10T15:43:24;21.40;;;6.50;;
22270;SDS011;11304;53.520;10.104;2023-01-10T15:45:50;25.48;;;6.38;;
22270;SDS011;11304;53.520;10.104;2023-01-10T15:50:56;26.83;;;6.60;;
22270;SDS011;11304;53.520;10.104;2023-01-10T15:55:54;18.83;;;7.13;;
22270;SDS011;11304;53.520;10.104;2023-01-10T15:58:31;22.00;;;6.68;;
22270;SDS011;11304;53.520;10.104;2023-01-10T16:00:59;22.75;;;6.32;;
22270;SDS011;11304;53.520;10.104;2023-01-10T16:03:36;24.67;;;7.18;;
22270;SDS011;11304;53.520;10.104;2023-01-10T16:06:02;25.17;;;7.35;;
22270;SDS011;11304;53.520;10.104;2023-01-10T16:08:33;20.17;;;7.13;;
22270;SDS011;11304;53.520;10.104;2023-01-10T16:11:00;19.65;;;6.60;;
22270;SDS011;11304;53.520;10.104;2023-01-10T16:13:27;25.77;;;8.05;;
22270;SDS011;11304;53.520;10.104;2023-01-10T16:15:58;21.45;;;7.13;;
22270;SDS011;11304;53.520;10.104;2023-01-10T16:18:26;21.95;;;6.88;;
22270;SDS011;11304;53.520;10.104;2023-01-10T16:20:53;23.80;;;7.53;;